sensor_id;sensor_type;location;lat;lon;timestamp;temperature;humidity
52895;DHT22;38759;53.396;6.722;2023-06-24T00:02:17;15.90;99.90
52895;DHT22;38759;53.396;6.722;2023-06-24T00:04:43;15.80;99.90
52895;DHT22;38759;53.396;6.722;2023-06-24T00:07:08;15.80;99.90
52895;DHT22;38759;53.396;6.722;2023-06-24T00:09:34;15.80;99.90
52895;DHT22;38759;53.396;6.722;2023-06-24T00:12:00;15.80;99.90
52895;DHT22;38759;53.396;6.722;2023-06-24T00:14:26;15.80;99.90
52895;DHT22;38759;53.396;6.722;2023-06-24T00:16:55;15.80;99.90
52895;DHT22;38759;53.396;6.722;2023-06-24T00:19:26;15.80;99.90
52895;DHT22;38759;53.396;6.722;2023-06-24T00:21:52;15.80;99.90
52895;DHT22;38759;53.396;6.722;2023-06-24T00:24:22;15.80;99.90
52895;DHT22;38759;53.396;6.722;2023-06-24T00:26:51;15.80;99.90
52895;DHT22;38759;53.396;6.722;2023-06-24T00:29:18;15.80;99.90
52895;DHT22;38759;53.396;6.722;2023-06-24T00:31:43;15.80;99.90
52895;DHT22;38759;53.396;6.722;2023-06-24T00:34:09;15.80;99.90
52895;DHT22;38759;53.396;6.722;2023-06-24T00:36:35;15.80;99.90
52895;DHT22;38759;53.396;6.722;2023-06-24T00:39:02;15.80;99.90
52895;DHT22;38759;53.396;6.722;2023-06-24T00:41:34;15.70;99.90
52895;DHT22;38759;53.396;6.722;2023-06-24T00:44:01;15.70;99.90
52895;DHT22;38759;53.396;6.722;2023-06-24T00:46:27;15.60;99.90
52895;DHT22;38759;53.396;6.722;2023-06-24T00:48:55;15.60;99.90
52895;DHT22;38759;53.396;6.722;2023-06-24T00:51:21;15.60;99.90
52895;DHT22;38759;53.396;6.722;2023-06-24T00:53:53;15.60;99.90
52895;DHT22;38759;53.396;6.722;2023-06-24T00:56:20;15.50;99.90
52895;DHT22;38759;53.396;6.722;2023-06-24T00:58:47;15.50;99.90
52895;DHT22;38759;53.396;6.722;2023-06-24T01:01:13;15.50;99.90
52895;DHT22;38759;53.396;6.722;2023-06-24T01:03:40;15.40;99.90
52895;DHT22;38759;53.396;6.722;2023-06-24T01:06:06;15.50;99.90
52895;DHT22;38759;53.396;6.722;2023-06-24T01:08:32;15.40;99.90
52895;DHT22;38759;53.396;6.722;2023-06-24T01:10:58;15.50;99.90
52895;DHT22;38759;53.396;6.722;2023-06-24T01:13:24;15.40;99.90
52895;DHT22;38759;53.396;6.722;2023-06-24T01:15:50;15.30;99.90
52895;DHT22;38759;53.396;6.722;2023-06-24T01:18:32;15.30;99.90
52895;DHT22;38759;53.396;6.722;2023-06-24T01:29:09;15.20;99.90
52895;DHT22;38759;53.396;6.722;2023-06-24T01:39:54;15.30;99.90
52895;DHT22;38759;53.396;6.722;2023-06-24T01:42:21;15.20;99.90
52895;DHT22;38759;53.396;6.722;2023-06-24T01:44:49;15.20;99.90
52895;DHT22;38759;53.396;6.722;2023-06-24T01:47:19;15.10;99.90
52895;DHT22;38759;53.396;6.722;2023-06-24T01:49:47;15.10;99.90
52895;DHT22;38759;53.396;6.722;2023-06-24T01:52:15;15.00;99.90
52895;DHT22;38759;53.396;6.722;2023-06-24T01:54:42;15.00;99.90
52895;DHT22;38759;53.396;6.722;2023-06-24T01:57:11;14.90;99.90
52895;DHT22;38759;53.396;6.722;2023-06-24T01:59:41;14.90;99.90
52895;DHT22;38759;53.396;6.722;2023-06-24T02:02:09;14.80;99.90
52895;DHT22;38759;53.396;6.722;2023-06-24T02:04:35;14.80;99.90
52895;DHT22;38759;53.396;6.722;2023-06-24T02:07:03;14.80;99.90
52895;DHT22;38759;53.396;6.722;2023-06-24T02:09:30;14.70;99.90
52895;DHT22;38759;53.396;6.722;2023-06-24T02:11:59;14.70;99.90
52895;DHT22;38759;53.396;6.722;2023-06-24T02:14:27;14.70;99.90
52895;DHT22;38759;53.396;6.722;2023-06-24T02:16:55;14.60;99.90
52895;DHT22;38759;53.396;6.722;2023-06-24T02:19:29;14.60;99.90
52895;DHT22;38759;53.396;6.722;2023-06-24T02:21:56;14.60;99.90
52895;DHT22;38759;53.396;6.722;2023-06-24T02:24:23;14.60;99.90
52895;DHT22;38759;53.396;6.722;2023-06-24T02:26:50;14.60;99.90
52895;DHT22;38759;53.396;6.722;2023-06-24T02:29:17;14.60;99.90
52895;DHT22;38759;53.396;6.722;2023-06-24T02:31:43;14.60;99.90
52895;DHT22;38759;53.396;6.722;2023-06-24T02:34:09;14.60;99.90
52895;DHT22;38759;53.396;6.722;2023-06-24T02:36:35;14.60;99.90
52895;DHT22;38759;53.396;6.722;2023-06-24T02:39:01;14.60;99.90
52895;DHT22;38759;53.396;6.722;2023-06-24T02:41:26;14.60;99.90
52895;DHT22;38759;53.396;6.722;2023-06-24T02:43:52;14.60;99.90
52895;DHT22;38759;53.396;6.722;2023-06-24T02:46:19;14.60;99.90
52895;DHT22;38759;53.396;6.722;2023-06-24T02:48:46;14.60;99.90
52895;DHT22;38759;53.396;6.722;2023-06-24T02:51:13;14.50;99.90
52895;DHT22;38759;53.396;6.722;2023-06-24T02:53:39;14.50;99.90
52895;DHT22;38759;53.396;6.722;2023-06-24T02:56:06;14.50;99.90
52895;DHT22;38759;53.396;6.722;2023-06-24T02:58:33;14.50;99.90
52895;DHT22;38759;53.396;6.722;2023-06-24T03:01:02;14.50;99.90
52895;DHT22;38759;53.396;6.722;2023-06-24T03:03:35;14.50;99.90
52895;DHT22;38759;53.396;6.722;2023-06-24T03:06:01;14.50;99.90
52895;DHT22;38759;53.396;6.722;2023-06-24T03:08:28;14.50;99.90
52895;DHT22;38759;53.396;6.722;2023-06-24T03:10:55;14.50;99.90
52895;DHT22;38759;53.396;6.722;2023-06-24T03:13:21;14.60;99.90
52895;DHT22;38759;53.396;6.722;2023-06-24T03:15:47;14.60;99.90
52895;DHT22;38759;53.396;6.722;2023-06-24T03:18:13;14.60;99.90
52895;DHT22;38759;53.396;6.722;2023-06-24T03:20:38;14.60;99.90
52895;DHT22;38759;53.396;6.722;2023-06-24T03:23:07;14.60;99.90
52895;DHT22;38759;53.396;6.722;2023-06-24T03:25:34;14.70;99.90
52895;DHT22;38759;53.396;6.722;2023-06-24T03:28:00;14.70;99.90
52895;DHT22;38759;53.396;6.722;2023-06-24T03:30:27;14.70;99.90
52895;DHT22;38759;53.396;6.722;2023-06-24T03:32:53;14.80;99.90
52895;DHT22;38759;53.396;6.722;2023-06-24T03:35:18;14.80;99.90
52895;DHT22;38759;53.396;6.722;2023-06-24T03:37:44;14.90;99.90
52895;DHT22;38759;53.396;6.722;2023-06-24T03:40:10;14.80;99.90
52895;DHT22;38759;53.396;6.722;2023-06-24T03:42:36;14.90;99.90
52895;DHT22;38759;53.396;6.722;2023-06-24T03:45:03;14.90;99.90
52895;DHT22;38759;53.396;6.722;2023-06-24T03:47:29;14.90;99.90
52895;DHT22;38759;53.396;6.722;2023-06-24T03:49:54;14.90;99.90
52895;DHT22;38759;53.396;6.722;2023-06-24T03:52:20;14.90;99.90
52895;DHT22;38759;53.396;6.722;2023-06-24T03:54:46;14.90;99.90
52895;DHT22;38759;53.396;6.722;2023-06-24T03:57:12;14.90;99.90
52895;DHT22;38759;53.396;6.722;2023-06-24T03:59:38;14.90;99.90
52895;DHT22;38759;53.396;6.722;2023-06-24T04:02:05;14.90;99.90
52895;DHT22;38759;53.396;6.722;2023-06-24T04:04:36;15.00;99.90
52895;DHT22;38759;53.396;6.722;2023-06-24T04:07:03;15.00;99.90
52895;DHT22;38759;53.396;6.722;2023-06-24T04:09:33;15.00;99.90
52895;DHT22;38759;53.396;6.722;2023-06-24T04:11:59;15.00;99.90
52895;DHT22;38759;53.396;6.722;2023-06-24T04:14:24;15.00;99.90
52895;DHT22;38759;53.396;6.722;2023-06-24T04:16:50;15.00;99.90
52895;DHT22;38759;53.396;6.722;2023-06-24T04:19:16;15.10;99.90
52895;DHT22;38759;53.396;6.722;2023-06-24T04:21:42;15.10;99.90
52895;DHT22;38759;53.396;6.722;2023-06-24T04:24:07;15.10;99.90
52895;DHT22;38759;53.396;6.722;2023-06-24T04:26:33;15.20;99.90
52895;DHT22;38759;53.396;6.722;2023-06-24T04:28:59;15.10;99.90
52895;DHT22;38759;53.396;6.722;2023-06-24T04:31:24;15.10;99.90
52895;DHT22;38759;53.396;6.722;2023-06-24T04:33:51;15.20;99.90
52895;DHT22;38759;53.396;6.722;2023-06-24T04:36:16;15.20;99.90
52895;DHT22;38759;53.396;6.722;2023-06-24T04:38:42;15.30;99.90
52895;DHT22;38759;53.396;6.722;2023-06-24T04:41:08;15.30;99.90
52895;DHT22;38759;53.396;6.722;2023-06-24T04:43:34;15.30;99.90
52895;DHT22;38759;53.396;6.722;2023-06-24T04:46:01;15.30;99.90
52895;DHT22;38759;53.396;6.722;2023-06-24T04:48:27;15.40;99.90
52895;DHT22;38759;53.396;6.722;2023-06-24T04:50:52;15.40;99.90
52895;DHT22;38759;53.396;6.722;2023-06-24T04:53:20;15.40;99.90
52895;DHT22;38759;53.396;6.722;2023-06-24T04:55:46;15.40;99.90
52895;DHT22;38759;53.396;6.722;2023-06-24T04:58:12;15.40;99.90
52895;DHT22;38759;53.396;6.722;2023-06-24T05:00:38;15.50;99.90
52895;DHT22;38759;53.396;6.722;2023-06-24T05:03:03;15.50;99.90
52895;DHT22;38759;53.396;6.722;2023-06-24T05:05:29;15.50;99.90
52895;DHT22;38759;53.396;6.722;2023-06-24T05:07:55;15.60;99.90
52895;DHT22;38759;53.396;6.722;2023-06-24T05:10:20;15.60;99.90
52895;DHT22;38759;53.396;6.722;2023-06-24T05:12:46;15.70;99.90
52895;DHT22;38759;53.396;6.722;2023-06-24T05:15:12;15.70;99.90
52895;DHT22;38759;53.396;6.722;2023-06-24T05:17:37;15.80;99.90
52895;DHT22;38759;53.396;6.722;2023-06-24T05:20:03;15.70;99.90
52895;DHT22;38759;53.396;6.722;2023-06-24T05:22:29;15.80;99.90
52895;DHT22;38759;53.396;6.722;2023-06-24T05:24:55;15.80;99.90
52895;DHT22;38759;53.396;6.722;2023-06-24T05:27:20;15.80;99.90
52895;DHT22;38759;53.396;6.722;2023-06-24T05:29:46;15.90;99.90
52895;DHT22;38759;53.396;6.722;2023-06-24T05:32:12;15.90;99.90
52895;DHT22;38759;53.396;6.722;2023-06-24T05:34:38;16.00;99.90
52895;DHT22;38759;53.396;6.722;2023-06-24T05:37:03;16.00;99.90
52895;DHT22;38759;53.396;6.722;2023-06-24T05:39:30;16.10;99.90
52895;DHT22;38759;53.396;6.722;2023-06-24T05:41:56;16.20;99.90
52895;DHT22;38759;53.396;6.722;2023-06-24T05:44:22;16.30;99.90
52895;DHT22;38759;53.396;6.722;2023-06-24T05:46:48;16.40;99.90
52895;DHT22;38759;53.396;6.722;2023-06-24T05:49:14;16.50;99.90
52895;DHT22;38759;53.396;6.722;2023-06-24T05:51:40;16.60;99.90
52895;DHT22;38759;53.396;6.722;2023-06-24T05:54:05;16.80;99.90
52895;DHT22;38759;53.396;6.722;2023-06-24T05:56:33;16.80;99.90
52895;DHT22;38759;53.396;6.722;2023-06-24T05:58:59;16.90;99.90
52895;DHT22;38759;53.396;6.722;2023-06-24T06:01:24;17.10;99.90
52895;DHT22;38759;53.396;6.722;2023-06-24T06:03:50;17.20;99.90
52895;DHT22;38759;53.396;6.722;2023-06-24T06:06:16;17.30;99.90
52895;DHT22;38759;53.396;6.722;2023-06-24T06:08:41;17.40;99.90
52895;DHT22;38759;53.396;6.722;2023-06-24T06:11:07;17.60;99.90
52895;DHT22;38759;53.396;6.722;2023-06-24T06:13:33;17.70;99.90
52895;DHT22;38759;53.396;6.722;2023-06-24T06:15:58;17.80;99.90
52895;DHT22;38759;53.396;6.722;2023-06-24T06:18:24;17.90;99.90
52895;DHT22;38759;53.396;6.722;2023-06-24T06:20:50;18.10;99.90
52895;DHT22;38759;53.396;6.722;2023-06-24T06:23:16;18.20;99.90
52895;DHT22;38759;53.396;6.722;2023-06-24T06:25:42;18.40;99.90
52895;DHT22;38759;53.396;6.722;2023-06-24T06:28:08;18.50;99.90
52895;DHT22;38759;53.396;6.722;2023-06-24T06:30:34;18.60;99.90
52895;DHT22;38759;53.396;6.722;2023-06-24T06:32:59;18.70;99.90
52895;DHT22;38759;53.396;6.722;2023-06-24T06:35:25;18.80;99.90
52895;DHT22;38759;53.396;6.722;2023-06-24T06:37:51;18.90;99.90
52895;DHT22;38759;53.396;6.722;2023-06-24T06:40:23;18.90;99.90
52895;DHT22;38759;53.396;6.722;2023-06-24T06:42:49;19.00;99.90
52895;DHT22;38759;53.396;6.722;2023-06-24T06:45:15;19.00;99.90
52895;DHT22;38759;53.396;6.722;2023-06-24T06:47:40;19.10;99.90
52895;DHT22;38759;53.396;6.722;2023-06-24T06:50:06;19.10;99.90
52895;DHT22;38759;53.396;6.722;2023-06-24T06:52:33;19.20;99.90
52895;DHT22;38759;53.396;6.722;2023-06-24T06:54:59;19.30;99.90
52895;DHT22;38759;53.396;6.722;2023-06-24T06:57:25;19.30;99.90
52895;DHT22;38759;53.396;6.722;2023-06-24T06:59:51;19.40;99.90
52895;DHT22;38759;53.396;6.722;2023-06-24T07:02:17;19.40;99.90
52895;DHT22;38759;53.396;6.722;2023-06-24T07:04:44;19.50;99.90
52895;DHT22;38759;53.396;6.722;2023-06-24T07:07:09;19.50;99.90
52895;DHT22;38759;53.396;6.722;2023-06-24T07:09:35;19.60;99.90
52895;DHT22;38759;53.396;6.722;2023-06-24T07:12:01;19.60;99.90
52895;DHT22;38759;53.396;6.722;2023-06-24T07:14:27;19.60;99.90
52895;DHT22;38759;53.396;6.722;2023-06-24T07:16:53;19.70;99.90
52895;DHT22;38759;53.396;6.722;2023-06-24T07:19:19;19.80;99.90
52895;DHT22;38759;53.396;6.722;2023-06-24T07:21:44;19.90;99.90
52895;DHT22;38759;53.396;6.722;2023-06-24T07:24:10;20.00;99.90
52895;DHT22;38759;53.396;6.722;2023-06-24T07:26:35;20.10;99.90
52895;DHT22;38759;53.396;6.722;2023-06-24T07:29:01;20.20;99.90
52895;DHT22;38759;53.396;6.722;2023-06-24T07:31:27;20.30;99.90
52895;DHT22;38759;53.396;6.722;2023-06-24T07:33:53;20.40;99.90
52895;DHT22;38759;53.396;6.722;2023-06-24T07:36:18;20.50;99.90
52895;DHT22;38759;53.396;6.722;2023-06-24T07:38:45;20.70;99.90
52895;DHT22;38759;53.396;6.722;2023-06-24T07:41:10;20.90;99.90
52895;DHT22;38759;53.396;6.722;2023-06-24T07:43:36;21.00;99.90
52895;DHT22;38759;53.396;6.722;2023-06-24T07:46:02;21.20;99.90
52895;DHT22;38759;53.396;6.722;2023-06-24T07:48:27;21.30;99.90
52895;DHT22;38759;53.396;6.722;2023-06-24T07:50:53;21.40;99.90
52895;DHT22;38759;53.396;6.722;2023-06-24T07:53:19;21.40;99.90
52895;DHT22;38759;53.396;6.722;2023-06-24T07:55:44;21.50;99.90
52895;DHT22;38759;53.396;6.722;2023-06-24T07:58:10;21.50;99.90
52895;DHT22;38759;53.396;6.722;2023-06-24T08:00:36;21.60;99.90
52895;DHT22;38759;53.396;6.722;2023-06-24T08:03:03;21.70;99.90
52895;DHT22;38759;53.396;6.722;2023-06-24T08:05:28;21.70;99.90
52895;DHT22;38759;53.396;6.722;2023-06-24T08:07:54;21.70;99.90
52895;DHT22;38759;53.396;6.722;2023-06-24T08:10:20;21.80;99.90
52895;DHT22;38759;53.396;6.722;2023-06-24T08:12:45;21.90;99.90
52895;DHT22;38759;53.396;6.722;2023-06-24T08:15:11;22.00;99.90
52895;DHT22;38759;53.396;6.722;2023-06-24T08:17:37;22.00;99.90
52895;DHT22;38759;53.396;6.722;2023-06-24T08:20:03;22.20;99.90
52895;DHT22;38759;53.396;6.722;2023-06-24T08:22:30;22.20;99.90
52895;DHT22;38759;53.396;6.722;2023-06-24T08:24:56;22.30;99.90
52895;DHT22;38759;53.396;6.722;2023-06-24T08:27:21;22.30;99.90
52895;DHT22;38759;53.396;6.722;2023-06-24T08:29:47;22.30;99.90
52895;DHT22;38759;53.396;6.722;2023-06-24T08:32:13;22.40;99.90
52895;DHT22;38759;53.396;6.722;2023-06-24T08:34:39;22.40;99.90
52895;DHT22;38759;53.396;6.722;2023-06-24T08:37:04;22.40;99.90
52895;DHT22;38759;53.396;6.722;2023-06-24T08:39:30;22.50;99.90
52895;DHT22;38759;53.396;6.722;2023-06-24T08:41:56;22.50;99.90
52895;DHT22;38759;53.396;6.722;2023-06-24T08:44:22;22.60;99.90
52895;DHT22;38759;53.396;6.722;2023-06-24T08:46:48;22.70;99.90
52895;DHT22;38759;53.396;6.722;2023-06-24T08:52:15;23.00;99.90
52895;DHT22;38759;53.396;6.722;2023-06-24T08:54:44;23.10;99.90
52895;DHT22;38759;53.396;6.722;2023-06-24T08:57:11;23.10;99.90
52895;DHT22;38759;53.396;6.722;2023-06-24T08:59:40;23.20;99.90
52895;DHT22;38759;53.396;6.722;2023-06-24T09:02:06;23.20;99.90
52895;DHT22;38759;53.396;6.722;2023-06-24T09:04:32;23.20;99.90
52895;DHT22;38759;53.396;6.722;2023-06-24T09:06:58;23.20;99.90
52895;DHT22;38759;53.396;6.722;2023-06-24T09:09:24;23.30;99.90
52895;DHT22;38759;53.396;6.722;2023-06-24T09:11:58;23.40;99.90
52895;DHT22;38759;53.396;6.722;2023-06-24T09:14:24;23.50;99.90
52895;DHT22;38759;53.396;6.722;2023-06-24T09:16:58;23.60;99.90
52895;DHT22;38759;53.396;6.722;2023-06-24T09:19:26;23.70;99.90
52895;DHT22;38759;53.396;6.722;2023-06-24T09:22:08;23.80;99.90
52895;DHT22;38759;53.396;6.722;2023-06-24T09:24:35;23.90;99.90
52895;DHT22;38759;53.396;6.722;2023-06-24T09:27:02;24.10;99.90
52895;DHT22;38759;53.396;6.722;2023-06-24T09:29:32;24.30;99.90
52895;DHT22;38759;53.396;6.722;2023-06-24T09:31:58;24.40;99.90
52895;DHT22;38759;53.396;6.722;2023-06-24T09:34:26;24.50;99.90
52895;DHT22;38759;53.396;6.722;2023-06-24T09:36:55;24.60;99.90
52895;DHT22;38759;53.396;6.722;2023-06-24T09:39:22;24.60;99.90
52895;DHT22;38759;53.396;6.722;2023-06-24T09:41:53;24.60;99.90
52895;DHT22;38759;53.396;6.722;2023-06-24T09:44:19;24.60;99.90
52895;DHT22;38759;53.396;6.722;2023-06-24T09:46:45;24.70;99.90
52895;DHT22;38759;53.396;6.722;2023-06-24T09:49:11;24.70;99.90
52895;DHT22;38759;53.396;6.722;2023-06-24T09:51:45;24.70;99.90
52895;DHT22;38759;53.396;6.722;2023-06-24T09:54:13;24.90;99.90
52895;DHT22;38759;53.396;6.722;2023-06-24T09:56:45;25.00;99.90
52895;DHT22;38759;53.396;6.722;2023-06-24T09:59:12;25.10;99.90
52895;DHT22;38759;53.396;6.722;2023-06-24T10:01:40;25.10;99.90
52895;DHT22;38759;53.396;6.722;2023-06-24T10:04:13;25.10;99.90
52895;DHT22;38759;53.396;6.722;2023-06-24T10:06:39;25.20;99.90
52895;DHT22;38759;53.396;6.722;2023-06-24T10:09:05;25.30;99.90
52895;DHT22;38759;53.396;6.722;2023-06-24T10:11:30;25.50;99.90
52895;DHT22;38759;53.396;6.722;2023-06-24T10:13:56;25.60;99.90
52895;DHT22;38759;53.396;6.722;2023-06-24T10:16:22;25.70;99.90
52895;DHT22;38759;53.396;6.722;2023-06-24T10:18:48;25.80;99.90
52895;DHT22;38759;53.396;6.722;2023-06-24T10:21:15;25.80;99.90
52895;DHT22;38759;53.396;6.722;2023-06-24T10:23:42;25.90;99.90
52895;DHT22;38759;53.396;6.722;2023-06-24T10:26:24;26.00;99.90
52895;DHT22;38759;53.396;6.722;2023-06-24T10:36:58;26.10;99.90
52895;DHT22;38759;53.396;6.722;2023-06-24T10:44:49;26.50;99.90
52895;DHT22;38759;53.396;6.722;2023-06-24T10:47:16;26.60;99.90
52895;DHT22;38759;53.396;6.722;2023-06-24T10:49:42;26.70;99.90
52895;DHT22;38759;53.396;6.722;2023-06-24T10:52:09;26.80;99.90
52895;DHT22;38759;53.396;6.722;2023-06-24T10:54:39;26.80;99.90
52895;DHT22;38759;53.396;6.722;2023-06-24T10:57:06;26.80;99.90
52895;DHT22;38759;53.396;6.722;2023-06-24T10:59:35;26.70;99.90
52895;DHT22;38759;53.396;6.722;2023-06-24T11:02:00;26.70;99.90
52895;DHT22;38759;53.396;6.722;2023-06-24T11:04:26;26.80;99.90
52895;DHT22;38759;53.396;6.722;2023-06-24T11:07:02;26.90;99.90
52895;DHT22;38759;53.396;6.722;2023-06-24T11:09:27;26.90;99.90
52895;DHT22;38759;53.396;6.722;2023-06-24T11:11:53;26.80;99.90
52895;DHT22;38759;53.396;6.722;2023-06-24T11:14:22;26.90;99.90
52895;DHT22;38759;53.396;6.722;2023-06-24T11:16:48;27.10;99.90
52895;DHT22;38759;53.396;6.722;2023-06-24T11:19:13;27.20;99.90
52895;DHT22;38759;53.396;6.722;2023-06-24T11:21:39;27.00;99.90
52895;DHT22;38759;53.396;6.722;2023-06-24T11:24:05;26.80;99.90
52895;DHT22;38759;53.396;6.722;2023-06-24T11:26:32;26.50;99.90
52895;DHT22;38759;53.396;6.722;2023-06-24T11:28:58;26.30;99.90
52895;DHT22;38759;53.396;6.722;2023-06-24T11:31:25;26.20;99.90
52895;DHT22;38759;53.396;6.722;2023-06-24T11:33:51;26.10;99.90
52895;DHT22;38759;53.396;6.722;2023-06-24T11:36:20;26.10;99.90
52895;DHT22;38759;53.396;6.722;2023-06-24T11:38:46;26.00;99.90
52895;DHT22;38759;53.396;6.722;2023-06-24T11:41:12;26.00;99.90
52895;DHT22;38759;53.396;6.722;2023-06-24T11:43:44;26.00;99.90
52895;DHT22;38759;53.396;6.722;2023-06-24T11:46:10;26.00;99.90
52895;DHT22;38759;53.396;6.722;2023-06-24T11:48:40;26.00;99.90
52895;DHT22;38759;53.396;6.722;2023-06-24T11:51:12;26.10;99.90
52895;DHT22;38759;53.396;6.722;2023-06-24T11:53:45;26.20;99.90
52895;DHT22;38759;53.396;6.722;2023-06-24T11:56:12;26.30;99.90
52895;DHT22;38759;53.396;6.722;2023-06-24T11:58:38;26.60;99.90
52895;DHT22;38759;53.396;6.722;2023-06-24T12:01:06;26.90;99.90
52895;DHT22;38759;53.396;6.722;2023-06-24T12:03:32;27.10;99.90
52895;DHT22;38759;53.396;6.722;2023-06-24T12:05:59;27.20;99.90
52895;DHT22;38759;53.396;6.722;2023-06-24T12:08:25;27.20;99.90
52895;DHT22;38759;53.396;6.722;2023-06-24T12:10:51;27.10;99.90
52895;DHT22;38759;53.396;6.722;2023-06-24T12:13:18;27.00;99.90
52895;DHT22;38759;53.396;6.722;2023-06-24T12:15:43;26.90;99.90
52895;DHT22;38759;53.396;6.722;2023-06-24T12:18:12;26.80;99.90
52895;DHT22;38759;53.396;6.722;2023-06-24T12:20:39;26.70;99.90
52895;DHT22;38759;53.396;6.722;2023-06-24T12:23:07;26.60;99.90
52895;DHT22;38759;53.396;6.722;2023-06-24T12:25:32;26.60;99.90
52895;DHT22;38759;53.396;6.722;2023-06-24T12:27:58;26.90;99.90
52895;DHT22;38759;53.396;6.722;2023-06-24T12:30:27;27.10;99.90
52895;DHT22;38759;53.396;6.722;2023-06-24T12:32:52;27.40;99.90
52895;DHT22;38759;53.396;6.722;2023-06-24T12:35:18;27.50;99.90
52895;DHT22;38759;53.396;6.722;2023-06-24T12:37:44;27.20;99.90
52895;DHT22;38759;53.396;6.722;2023-06-24T12:40:10;27.20;99.90
52895;DHT22;38759;53.396;6.722;2023-06-24T12:42:36;27.40;99.90
52895;DHT22;38759;53.396;6.722;2023-06-24T12:45:02;27.60;99.90
52895;DHT22;38759;53.396;6.722;2023-06-24T12:47:28;27.70;99.90
52895;DHT22;38759;53.396;6.722;2023-06-24T12:49:53;27.70;99.90
52895;DHT22;38759;53.396;6.722;2023-06-24T12:52:19;27.80;99.90
52895;DHT22;38759;53.396;6.722;2023-06-24T12:54:45;28.00;99.90
52895;DHT22;38759;53.396;6.722;2023-06-24T12:57:10;28.10;99.90
52895;DHT22;38759;53.396;6.722;2023-06-24T12:59:36;28.20;99.90
52895;DHT22;38759;53.396;6.722;2023-06-24T13:02:02;28.00;99.90
52895;DHT22;38759;53.396;6.722;2023-06-24T13:04:28;27.90;99.90
52895;DHT22;38759;53.396;6.722;2023-06-24T13:06:53;27.90;99.90
52895;DHT22;38759;53.396;6.722;2023-06-24T13:09:19;27.90;99.90
52895;DHT22;38759;53.396;6.722;2023-06-24T13:11:45;27.90;99.90
52895;DHT22;38759;53.396;6.722;2023-06-24T13:14:12;28.10;99.90
52895;DHT22;38759;53.396;6.722;2023-06-24T13:16:38;28.20;99.90
52895;DHT22;38759;53.396;6.722;2023-06-24T13:19:04;28.30;99.90
52895;DHT22;38759;53.396;6.722;2023-06-24T13:21:30;28.30;99.90
52895;DHT22;38759;53.396;6.722;2023-06-24T13:23:56;28.30;99.90
52895;DHT22;38759;53.396;6.722;2023-06-24T13:26:21;28.40;99.90
52895;DHT22;38759;53.396;6.722;2023-06-24T13:28:47;28.50;99.90
52895;DHT22;38759;53.396;6.722;2023-06-24T13:31:15;28.40;99.90
52895;DHT22;38759;53.396;6.722;2023-06-24T13:33:40;28.40;99.90
52895;DHT22;38759;53.396;6.722;2023-06-24T13:36:07;28.40;99.90
52895;DHT22;38759;53.396;6.722;2023-06-24T13:38:33;28.50;99.90
52895;DHT22;38759;53.396;6.722;2023-06-24T13:40:58;28.50;99.90
52895;DHT22;38759;53.396;6.722;2023-06-24T13:43:24;28.60;99.90
52895;DHT22;38759;53.396;6.722;2023-06-24T13:45:51;28.60;99.90
52895;DHT22;38759;53.396;6.722;2023-06-24T13:48:16;28.70;99.90
52895;DHT22;38759;53.396;6.722;2023-06-24T13:50:42;28.70;99.90
52895;DHT22;38759;53.396;6.722;2023-06-24T13:53:08;28.50;99.90
52895;DHT22;38759;53.396;6.722;2023-06-24T13:55:33;28.50;99.90
52895;DHT22;38759;53.396;6.722;2023-06-24T13:58:01;28.50;99.90
52895;DHT22;38759;53.396;6.722;2023-06-24T14:00:27;28.60;99.90
52895;DHT22;38759;53.396;6.722;2023-06-24T14:02:53;28.60;99.90
52895;DHT22;38759;53.396;6.722;2023-06-24T14:05:19;28.60;99.90
52895;DHT22;38759;53.396;6.722;2023-06-24T14:07:44;28.60;99.90
52895;DHT22;38759;53.396;6.722;2023-06-24T14:10:10;28.60;99.90
52895;DHT22;38759;53.396;6.722;2023-06-24T14:12:36;28.50;99.90
52895;DHT22;38759;53.396;6.722;2023-06-24T14:15:03;28.50;99.90
52895;DHT22;38759;53.396;6.722;2023-06-24T14:17:29;28.40;99.90
52895;DHT22;38759;53.396;6.722;2023-06-24T14:19:54;28.40;99.90
52895;DHT22;38759;53.396;6.722;2023-06-24T14:22:20;28.40;99.90
52895;DHT22;38759;53.396;6.722;2023-06-24T14:24:48;28.50;99.90
52895;DHT22;38759;53.396;6.722;2023-06-24T14:27:14;28.60;99.90
52895;DHT22;38759;53.396;6.722;2023-06-24T14:29:39;28.70;99.90
52895;DHT22;38759;53.396;6.722;2023-06-24T14:32:05;28.70;99.90
52895;DHT22;38759;53.396;6.722;2023-06-24T14:34:31;28.80;99.90
52895;DHT22;38759;53.396;6.722;2023-06-24T14:36:57;28.80;99.90
52895;DHT22;38759;53.396;6.722;2023-06-24T14:39:23;28.80;99.90
52895;DHT22;38759;53.396;6.722;2023-06-24T14:41:49;28.80;99.90
52895;DHT22;38759;53.396;6.722;2023-06-24T14:44:14;28.70;99.90
52895;DHT22;38759;53.396;6.722;2023-06-24T14:46:40;28.70;99.90
52895;DHT22;38759;53.396;6.722;2023-06-24T14:49:06;28.70;99.90
52895;DHT22;38759;53.396;6.722;2023-06-24T14:51:32;28.70;99.90
52895;DHT22;38759;53.396;6.722;2023-06-24T14:53:58;28.80;99.90
52895;DHT22;38759;53.396;6.722;2023-06-24T14:56:23;28.90;99.90
52895;DHT22;38759;53.396;6.722;2023-06-24T14:58:50;29.10;99.90
52895;DHT22;38759;53.396;6.722;2023-06-24T15:01:17;29.00;99.90
52895;DHT22;38759;53.396;6.722;2023-06-24T15:03:43;28.90;99.90
52895;DHT22;38759;53.396;6.722;2023-06-24T15:06:08;28.80;99.90
52895;DHT22;38759;53.396;6.722;2023-06-24T15:08:37;28.70;99.90
52895;DHT22;38759;53.396;6.722;2023-06-24T15:11:03;28.80;99.90
52895;DHT22;38759;53.396;6.722;2023-06-24T15:13:29;28.70;99.90
52895;DHT22;38759;53.396;6.722;2023-06-24T15:15:55;28.60;99.90
52895;DHT22;38759;53.396;6.722;2023-06-24T15:18:22;28.60;99.90
52895;DHT22;38759;53.396;6.722;2023-06-24T15:20:48;28.40;99.90
52895;DHT22;38759;53.396;6.722;2023-06-24T15:23:14;28.40;99.90
52895;DHT22;38759;53.396;6.722;2023-06-24T15:25:39;28.20;99.90
52895;DHT22;38759;53.396;6.722;2023-06-24T15:28:05;28.10;99.90
52895;DHT22;38759;53.396;6.722;2023-06-24T15:30:31;28.00;99.90
52895;DHT22;38759;53.396;6.722;2023-06-24T15:32:57;27.90;99.90
52895;DHT22;38759;53.396;6.722;2023-06-24T15:35:23;28.00;99.90
52895;DHT22;38759;53.396;6.722;2023-06-24T15:37:49;27.90;99.90
52895;DHT22;38759;53.396;6.722;2023-06-24T15:40:14;27.90;99.90
52895;DHT22;38759;53.396;6.722;2023-06-24T15:42:40;27.90;99.90
52895;DHT22;38759;53.396;6.722;2023-06-24T15:45:06;27.90;99.90
52895;DHT22;38759;53.396;6.722;2023-06-24T15:47:31;27.90;99.90
52895;DHT22;38759;53.396;6.722;2023-06-24T15:49:57;28.00;99.90
52895;DHT22;38759;53.396;6.722;2023-06-24T15:52:23;28.00;99.90
52895;DHT22;38759;53.396;6.722;2023-06-24T15:54:49;28.00;99.90
52895;DHT22;38759;53.396;6.722;2023-06-24T15:57:14;28.10;99.90
52895;DHT22;38759;53.396;6.722;2023-06-24T15:59:40;28.10;99.90